createdAt,value
2017-06-28T00:01:28.157Z,19.57
2017-06-28T00:03:57.229Z,19.58
2017-06-28T00:06:26.299Z,19.54
2017-06-28T00:08:56.172Z,19.53
2017-06-28T00:11:25.332Z,19.49
2017-06-28T00:13:55.144Z,19.46
2017-06-28T00:16:24.207Z,19.45
2017-06-28T00:18:53.573Z,19.46
2017-06-28T00:21:22.680Z,19.41
2017-06-28T00:23:51.732Z,19.41
2017-06-28T00:26:21.340Z,19.38
2017-06-28T00:28:50.436Z,19.37
2017-06-28T00:31:20.269Z,19.41
2017-06-28T00:33:49.354Z,19.38
2017-06-28T00:36:18.421Z,19.35
2017-06-28T00:38:48.271Z,19.31
2017-06-28T00:41:17.405Z,19.30
2017-06-28T00:43:46.448Z,19.28
2017-06-28T00:46:15.546Z,19.31
2017-06-28T00:48:44.602Z,19.31
2017-06-28T00:51:13.996Z,19.35
2017-06-28T00:53:43.589Z,19.35
2017-06-28T00:56:12.720Z,19.37
2017-06-28T00:58:42.573Z,19.40
2017-06-28T01:01:11.619Z,19.43
2017-06-28T01:03:40.724Z,19.50
2017-06-28T01:06:10.625Z,19.49
2017-06-28T01:08:39.686Z,19.53
2017-06-28T01:11:09.111Z,19.53
2017-06-28T01:13:38.164Z,19.54
2017-06-28T01:16:08.039Z,19.53
2017-06-28T01:18:37.419Z,19.55
2017-06-28T01:21:06.474Z,19.53
2017-06-28T01:23:35.597Z,19.51
2017-06-28T01:26:05.064Z,19.44
2017-06-28T01:28:34.893Z,19.43
2017-06-28T01:31:03.952Z,19.40
2017-06-28T01:33:33.863Z,19.32
2017-06-28T01:36:02.940Z,19.31
2017-06-28T01:38:31.984Z,19.28
2017-06-28T01:41:01.072Z,19.25
2017-06-28T01:43:30.136Z,19.23
2017-06-28T01:45:59.185Z,19.22
2017-06-28T01:48:28.270Z,19.22
2017-06-28T01:50:57.351Z,19.21
2017-06-28T01:53:26.444Z,19.18
2017-06-28T01:55:55.524Z,19.16
2017-06-28T01:58:25.361Z,19.12
2017-06-28T02:00:55.188Z,19.12
2017-06-28T02:03:24.253Z,19.10
2017-06-28T02:05:54.074Z,19.07
2017-06-28T02:08:23.903Z,19.02
2017-06-28T02:10:52.984Z,19.10
2017-06-28T02:13:22.827Z,19.16
2017-06-28T02:15:51.887Z,19.16
2017-06-28T02:18:20.976Z,19.17
2017-06-28T02:20:50.038Z,19.22
2017-06-28T02:23:19.094Z,19.28
2017-06-28T02:25:48.186Z,19.34
2017-06-28T02:28:17.235Z,19.42
2017-06-28T02:30:46.285Z,19.45
2017-06-28T02:33:15.383Z,19.45
2017-06-28T02:35:44.491Z,19.41
2017-06-28T02:38:13.643Z,19.39
2017-06-28T02:40:42.744Z,19.40
2017-06-28T02:43:11.875Z,19.33
2017-06-28T02:45:40.992Z,19.28
2017-06-28T02:48:10.063Z,19.29
2017-06-28T02:50:39.126Z,19.31
2017-06-28T02:53:08.226Z,19.37
2017-06-28T02:55:37.290Z,19.39
2017-06-28T02:58:07.107Z,19.38
2017-06-28T03:00:36.940Z,19.27
2017-06-28T03:03:06.007Z,19.24
2017-06-28T03:05:35.071Z,19.26
2017-06-28T03:08:04.196Z,19.31
2017-06-28T03:10:33.261Z,19.32
2017-06-28T03:13:02.355Z,19.26
2017-06-28T03:15:31.424Z,19.24
2017-06-28T03:18:00.516Z,19.23
2017-06-28T03:20:29.888Z,19.21
2017-06-28T03:22:58.984Z,19.20
2017-06-28T03:25:28.060Z,19.17
2017-06-28T03:27:57.144Z,19.20
2017-06-28T03:30:26.220Z,19.20
2017-06-28T03:32:55.310Z,19.21
2017-06-28T03:35:24.383Z,19.29
2017-06-28T03:37:53.506Z,19.33
2017-06-28T03:40:22.556Z,19.38
2017-06-28T03:42:51.632Z,19.42
2017-06-28T03:45:20.707Z,19.48
2017-06-28T03:47:49.784Z,19.51
2017-06-28T03:50:18.880Z,19.51
2017-06-28T03:52:47.955Z,19.53
2017-06-28T03:55:17.024Z,19.57
2017-06-28T03:57:46.352Z,19.62
2017-06-28T04:00:15.407Z,19.69
2017-06-28T04:02:44.473Z,19.73
2017-06-28T04:05:13.592Z,19.80
2017-06-28T04:07:42.640Z,19.89
2017-06-28T04:10:11.741Z,19.94
2017-06-28T04:12:40.830Z,19.98
2017-06-28T04:15:09.932Z,20.00
2017-06-28T04:17:38.995Z,19.98
2017-06-28T04:20:08.073Z,20.02
2017-06-28T04:22:37.116Z,20.06
2017-06-28T04:25:06.155Z,20.15
2017-06-28T04:27:35.221Z,20.21
2017-06-28T04:30:04.325Z,20.31
2017-06-28T04:32:33.444Z,20.40
2017-06-28T04:35:02.493Z,20.49
2017-06-28T04:37:31.544Z,20.55
2017-06-28T04:40:00.613Z,20.57
2017-06-28T04:42:29.655Z,20.64
2017-06-28T04:44:58.736Z,20.70
2017-06-28T04:47:27.799Z,20.71
2017-06-28T04:49:57.119Z,20.73
2017-06-28T04:52:26.172Z,20.71
2017-06-28T04:54:55.237Z,20.78
2017-06-28T04:57:24.308Z,20.81
2017-06-28T04:59:53.352Z,20.80
2017-06-28T05:02:22.412Z,20.82
2017-06-28T05:07:29.569Z,20.78
2017-06-28T05:09:58.612Z,20.79
2017-06-28T05:12:27.680Z,20.78
2017-06-28T05:14:56.754Z,20.84
2017-06-28T05:17:25.813Z,20.88
2017-06-28T05:19:54.888Z,20.92
2017-06-28T05:22:23.970Z,20.90
2017-06-28T05:24:53.282Z,20.76
2017-06-28T05:27:22.360Z,20.79
2017-06-28T05:29:51.460Z,20.88
2017-06-28T05:32:20.523Z,20.95
2017-06-28T05:34:49.592Z,20.97
2017-06-28T05:37:18.962Z,20.98
2017-06-28T05:39:48.025Z,21.03
2017-06-28T05:42:17.154Z,21.12
2017-06-28T05:44:46.191Z,21.18
2017-06-28T05:47:15.335Z,21.22
2017-06-28T05:49:44.410Z,21.19
2017-06-28T05:52:13.443Z,21.20
2017-06-28T05:54:42.524Z,21.24
2017-06-28T05:57:11.644Z,21.25
2017-06-28T05:59:40.703Z,21.30
2017-06-28T06:02:09.785Z,21.35
2017-06-28T06:04:38.948Z,21.38
2017-06-28T06:07:08.042Z,21.40
2017-06-28T06:09:37.164Z,21.45
2017-06-28T06:12:06.307Z,21.50
2017-06-28T06:14:35.383Z,21.52
2017-06-28T06:17:04.656Z,21.59
2017-06-28T06:19:33.922Z,21.66
2017-06-28T06:22:02.972Z,21.81
2017-06-28T06:24:32.065Z,21.95
2017-06-28T06:27:01.164Z,22.02
2017-06-28T06:29:30.219Z,22.08
2017-06-28T06:31:59.317Z,22.18
2017-06-28T06:34:28.389Z,22.24
2017-06-28T06:36:57.463Z,22.25
2017-06-28T06:39:26.515Z,22.26
2017-06-28T06:41:55.592Z,22.35
2017-06-28T06:44:24.661Z,22.48
2017-06-28T06:46:53.715Z,22.57
2017-06-28T06:49:22.789Z,22.68
2017-06-28T06:51:51.859Z,22.66
2017-06-28T06:54:21.135Z,22.71
2017-06-28T06:56:50.224Z,22.76
2017-06-28T06:59:19.256Z,22.75
2017-06-28T07:01:48.345Z,22.84
2017-06-28T07:04:17.473Z,22.93
2017-06-28T07:06:46.550Z,23.00
2017-06-28T07:09:16.029Z,23.05
2017-06-28T07:11:45.125Z,23.05
2017-06-28T07:14:14.169Z,23.13
2017-06-28T07:16:43.213Z,23.23
2017-06-28T07:19:12.287Z,23.19
2017-06-28T07:21:41.336Z,23.17
2017-06-28T07:24:10.446Z,23.16
2017-06-28T07:26:39.503Z,23.16
2017-06-28T07:29:08.621Z,23.19
2017-06-28T07:31:37.666Z,23.15
2017-06-28T07:34:06.992Z,23.14
2017-06-28T07:36:36.290Z,23.11
2017-06-28T07:39:05.342Z,23.10
2017-06-28T07:41:34.469Z,23.10
2017-06-28T07:44:03.553Z,23.11
2017-06-28T07:46:32.611Z,23.16
2017-06-28T07:49:01.655Z,23.14
2017-06-28T07:51:30.757Z,23.14
2017-06-28T07:53:59.842Z,23.13
2017-06-28T07:56:29.972Z,23.12
2017-06-28T07:58:59.060Z,23.11
2017-06-28T08:01:28.123Z,23.11
2017-06-28T08:03:57.203Z,23.15
2017-06-28T08:06:26.235Z,23.11
2017-06-28T08:08:55.280Z,23.12
2017-06-28T08:11:24.369Z,23.22
2017-06-28T08:13:53.425Z,23.28
2017-06-28T08:16:22.505Z,23.45
2017-06-28T08:18:51.619Z,23.56
2017-06-28T08:21:20.867Z,23.58
2017-06-28T08:23:49.918Z,23.67
2017-06-28T08:26:18.976Z,23.77
2017-06-28T08:28:48.054Z,23.81
2017-06-28T08:31:17.374Z,23.77
2017-06-28T08:33:46.431Z,23.79
2017-06-28T08:36:15.518Z,23.79
2017-06-28T08:38:44.551Z,23.84
2017-06-28T08:41:13.674Z,23.92
2017-06-28T08:43:42.736Z,24.05
2017-06-28T08:46:11.771Z,24.23
2017-06-28T08:48:41.525Z,24.37
2017-06-28T08:51:10.704Z,24.38
2017-06-28T08:53:39.795Z,24.47
2017-06-28T08:56:08.888Z,24.50
2017-06-28T08:58:37.935Z,24.53
2017-06-28T09:01:07.028Z,24.59
2017-06-28T09:03:36.119Z,24.67
2017-06-28T09:06:05.235Z,24.70
2017-06-28T09:08:34.274Z,24.73
2017-06-28T09:11:03.334Z,24.61
2017-06-28T09:13:32.627Z,24.67
2017-06-28T09:16:01.681Z,24.71
2017-06-28T09:18:30.761Z,24.62
2017-06-28T09:20:59.832Z,24.55
2017-06-28T09:23:28.904Z,24.41
2017-06-28T09:25:57.963Z,24.35
2017-06-28T09:28:27.036Z,24.31
2017-06-28T09:30:56.096Z,24.26
2017-06-28T09:33:25.173Z,24.21
2017-06-28T09:35:54.235Z,24.12
2017-06-28T09:38:23.331Z,24.12
2017-06-28T09:40:52.368Z,24.17
2017-06-28T09:43:21.460Z,24.28
2017-06-28T09:45:50.512Z,24.39
2017-06-28T09:48:19.584Z,24.41
2017-06-28T09:50:48.633Z,24.37
2017-06-28T09:53:17.734Z,24.30
2017-06-28T09:55:46.760Z,24.16
2017-06-28T09:58:15.876Z,23.90
2017-06-28T10:00:44.989Z,23.74
2017-06-28T10:03:14.064Z,23.61
2017-06-28T10:05:43.169Z,23.55
2017-06-28T10:08:12.251Z,23.39
2017-06-28T10:10:41.413Z,23.27
2017-06-28T10:13:10.475Z,23.19
2017-06-28T10:15:39.551Z,23.10
2017-06-28T10:18:08.667Z,23.03
2017-06-28T10:20:37.756Z,22.88
2017-06-28T10:23:06.825Z,22.85
2017-06-28T10:25:35.908Z,22.80
2017-06-28T10:28:04.984Z,22.77
2017-06-28T10:30:34.040Z,22.74
2017-06-28T10:33:03.080Z,22.71
2017-06-28T10:35:32.176Z,22.69
2017-06-28T10:38:01.245Z,22.66
2017-06-28T10:40:30.335Z,22.62
2017-06-28T10:42:59.376Z,22.67
2017-06-28T10:45:28.430Z,22.67
2017-06-28T10:47:57.521Z,22.61
2017-06-28T10:50:26.568Z,22.66
2017-06-28T10:52:55.653Z,22.71
2017-06-28T10:55:24.903Z,22.74
2017-06-28T10:57:53.980Z,22.78
2017-06-28T11:00:23.066Z,22.83
2017-06-28T11:02:52.099Z,22.79
2017-06-28T11:05:21.190Z,22.76
2017-06-28T11:07:50.273Z,22.82
2017-06-28T11:10:19.357Z,22.87
2017-06-28T11:12:48.381Z,22.92
2017-06-28T11:15:17.535Z,22.94
2017-06-28T11:17:46.615Z,22.94
2017-06-28T11:20:15.671Z,22.96
2017-06-28T11:22:46.788Z,22.98
2017-06-28T11:25:15.901Z,22.98
2017-06-28T11:27:44.972Z,22.95
2017-06-28T11:30:14.253Z,22.96
2017-06-28T11:32:43.402Z,22.95
2017-06-28T11:35:12.440Z,22.98
2017-06-28T11:37:41.503Z,22.93
2017-06-28T11:40:10.844Z,22.87
2017-06-28T11:42:39.861Z,22.90
2017-06-28T11:45:09.954Z,22.90
2017-06-28T11:47:39.036Z,22.91
2017-06-28T11:50:08.090Z,22.97
2017-06-28T11:52:37.162Z,22.87
2017-06-28T11:55:06.533Z,22.79
2017-06-28T11:57:35.590Z,22.75
2017-06-28T12:00:04.680Z,22.68
2017-06-28T12:02:33.772Z,22.64
2017-06-28T12:05:02.832Z,22.62
2017-06-28T12:07:32.973Z,22.65
2017-06-28T12:10:02.112Z,22.70
2017-06-28T12:12:31.152Z,22.66
2017-06-28T12:15:00.287Z,22.62
2017-06-28T12:17:29.388Z,22.64
2017-06-28T12:19:58.694Z,22.66
2017-06-28T12:22:27.755Z,22.74
2017-06-28T12:24:57.793Z,22.78
2017-06-28T12:27:26.848Z,22.84
2017-06-28T12:29:55.925Z,22.87
2017-06-28T12:32:25.308Z,22.90
2017-06-28T12:34:54.352Z,22.92
2017-06-28T12:37:23.476Z,22.93
2017-06-28T12:39:52.525Z,22.96
2017-06-28T12:42:21.585Z,23.01
2017-06-28T12:44:50.638Z,23.06
2017-06-28T12:47:19.702Z,23.20
2017-06-28T12:49:48.793Z,23.31
2017-06-28T12:52:17.863Z,23.34
2017-06-28T12:54:47.132Z,23.41
2017-06-28T12:57:16.346Z,23.48
2017-06-28T12:59:45.387Z,23.55
2017-06-28T13:02:14.462Z,23.66
2017-06-28T13:04:43.527Z,23.81
2017-06-28T13:07:12.842Z,23.94
2017-06-28T13:09:42.152Z,24.07
2017-06-28T13:12:11.266Z,24.19
2017-06-28T13:14:40.333Z,24.35
2017-06-28T13:17:09.386Z,24.43
2017-06-28T13:19:38.680Z,24.49
2017-06-28T13:22:07.725Z,24.56
2017-06-28T13:24:36.829Z,24.56
2017-06-28T13:27:05.932Z,24.63
2017-06-28T13:29:35.006Z,24.71
2017-06-28T13:32:04.074Z,24.85
2017-06-28T13:34:33.136Z,25.02
2017-06-28T13:37:02.234Z,25.09
2017-06-28T13:39:31.327Z,25.11
2017-06-28T13:42:00.425Z,24.95
2017-06-28T13:44:29.553Z,24.76
2017-06-28T13:46:58.601Z,24.44
2017-06-28T13:49:27.664Z,23.84
2017-06-28T13:51:56.743Z,23.23
2017-06-28T13:54:25.800Z,22.78
2017-06-28T13:56:54.868Z,22.48
2017-06-28T13:59:23.937Z,22.16
2017-06-28T14:01:52.991Z,21.95
2017-06-28T14:04:22.064Z,21.80
2017-06-28T14:06:51.132Z,21.60
2017-06-28T14:09:20.244Z,21.37
2017-06-28T14:11:49.514Z,21.22
2017-06-28T14:14:18.574Z,21.13
2017-06-28T14:16:47.649Z,21.02
2017-06-28T14:19:16.750Z,20.98
2017-06-28T14:21:45.832Z,20.96
2017-06-28T14:24:14.927Z,21.02
2017-06-28T14:26:44.117Z,21.07
2017-06-28T14:29:20.894Z,21.20
2017-06-28T14:31:49.982Z,21.30
2017-06-28T14:34:19.061Z,21.38
2017-06-28T14:36:48.152Z,21.42
2017-06-28T14:39:17.186Z,21.47
2017-06-28T14:41:46.274Z,21.51
2017-06-28T14:44:15.355Z,21.41
2017-06-28T14:46:44.407Z,21.24
2017-06-28T14:49:13.599Z,20.96
2017-06-28T14:51:42.736Z,20.83
2017-06-28T14:54:13.019Z,20.82
2017-06-28T14:56:42.327Z,20.77
2017-06-28T14:59:11.393Z,20.72
2017-06-28T15:01:40.472Z,20.63
2017-06-28T15:04:09.565Z,20.62
2017-06-28T15:06:38.645Z,20.60
2017-06-28T15:09:09.772Z,20.58
2017-06-28T15:11:39.655Z,20.58
2017-06-28T15:14:08.723Z,20.57
2017-06-28T15:16:38.444Z,20.58
2017-06-28T15:19:07.622Z,20.65
2017-06-28T15:21:36.702Z,20.71
2017-06-28T15:24:06.556Z,20.72
2017-06-28T15:26:36.398Z,20.78
2017-06-28T15:29:05.515Z,20.78
2017-06-28T15:31:34.583Z,20.78
2017-06-28T15:34:03.674Z,20.77
2017-06-28T15:36:32.764Z,20.82
2017-06-28T15:39:02.071Z,20.86
2017-06-28T15:41:31.168Z,20.99
2017-06-28T15:44:00.234Z,21.14
2017-06-28T15:46:29.323Z,21.18
2017-06-28T15:48:58.429Z,21.27
2017-06-28T15:51:27.586Z,21.31
2017-06-28T15:54:15.031Z,21.32
2017-06-28T15:56:47.627Z,21.37
2017-06-28T15:59:16.687Z,21.37
2017-06-28T16:01:45.766Z,21.43
2017-06-28T16:10:29.373Z,21.53
2017-06-28T16:12:58.441Z,21.56
2017-06-28T16:15:27.721Z,21.65
2017-06-28T16:17:56.829Z,21.66
2017-06-28T16:20:25.932Z,21.63
2017-06-28T16:22:55.196Z,21.62
2017-06-28T16:25:24.293Z,21.60
2017-06-28T16:27:53.484Z,21.60
2017-06-28T16:30:22.561Z,21.65
2017-06-28T16:32:51.718Z,21.62
2017-06-28T16:35:20.789Z,21.58
2017-06-28T16:37:50.100Z,21.56
2017-06-28T16:40:19.221Z,21.47
2017-06-28T16:42:48.988Z,21.50
2017-06-28T16:45:18.041Z,21.52
2017-06-28T16:47:47.144Z,21.52
2017-06-28T16:50:16.239Z,21.58
2017-06-28T16:52:45.287Z,21.54
2017-06-28T16:55:14.345Z,21.56
2017-06-28T16:57:43.438Z,21.53
2017-06-28T17:00:12.513Z,21.53
2017-06-28T17:02:41.706Z,21.56
2017-06-28T17:05:10.803Z,21.59
2017-06-28T17:07:40.123Z,21.64
2017-06-28T17:10:09.205Z,21.62
2017-06-28T17:12:39.170Z,21.59
2017-06-28T17:15:08.260Z,21.53
2017-06-28T17:17:37.312Z,21.53
2017-06-28T17:20:06.400Z,21.52
2017-06-28T17:22:35.497Z,21.50
2017-06-28T17:25:04.613Z,21.46
2017-06-28T17:27:33.673Z,21.40
2017-06-28T17:30:02.761Z,21.42
2017-06-28T17:32:31.828Z,21.44
2017-06-28T17:35:00.903Z,21.48
2017-06-28T17:37:29.951Z,21.52
2017-06-28T17:39:59.034Z,21.51
2017-06-28T17:42:28.127Z,21.53
2017-06-28T17:44:57.167Z,21.56
2017-06-28T17:47:26.279Z,21.58
2017-06-28T17:49:55.361Z,21.59
2017-06-28T17:52:24.435Z,21.60
2017-06-28T17:54:53.476Z,21.60
2017-06-28T17:57:22.529Z,21.67
2017-06-28T17:59:51.606Z,21.70
2017-06-28T18:02:21.718Z,21.71
2017-06-28T18:04:51.167Z,21.74
2017-06-28T18:07:20.203Z,21.80
2017-06-28T18:09:49.256Z,21.84
2017-06-28T18:12:18.332Z,21.85
2017-06-28T18:14:47.375Z,21.87
2017-06-28T18:17:16.482Z,21.87
2017-06-28T18:19:46.035Z,21.82
2017-06-28T18:22:15.128Z,21.83
2017-06-28T18:24:44.233Z,21.82
2017-06-28T18:27:13.306Z,21.80
2017-06-28T18:29:42.400Z,21.82
2017-06-28T18:32:11.502Z,21.83
2017-06-28T18:34:40.592Z,21.84
2017-06-28T18:37:10.803Z,21.83
2017-06-28T18:39:39.840Z,21.88
2017-06-28T18:42:08.966Z,21.91
2017-06-28T18:44:38.040Z,21.93
2017-06-28T18:47:07.126Z,21.92
2017-06-28T18:49:36.452Z,21.95
2017-06-28T18:52:06.235Z,21.97
2017-06-28T18:54:35.298Z,21.99
2017-06-28T18:57:05.154Z,21.99
2017-06-28T18:59:35.236Z,21.96
2017-06-28T19:02:04.813Z,21.98
2017-06-28T19:04:33.879Z,22.16
2017-06-28T19:07:02.952Z,22.40
2017-06-28T19:09:32.044Z,22.53
2017-06-28T19:12:01.125Z,22.56
2017-06-28T19:14:30.188Z,22.52
2017-06-28T19:16:59.256Z,22.49
2017-06-28T19:19:28.354Z,22.39
2017-06-28T19:21:57.836Z,22.29
2017-06-28T19:24:26.928Z,22.18
2017-06-28T19:26:56.075Z,22.05
2017-06-28T19:29:25.147Z,21.96
2017-06-28T19:31:54.227Z,21.85
2017-06-28T19:34:23.292Z,21.69
2017-06-28T19:36:52.415Z,21.61
2017-06-28T19:39:21.498Z,21.52
2017-06-28T19:41:50.604Z,21.44
2017-06-28T19:44:19.866Z,21.40
2017-06-28T19:46:48.921Z,21.36
2017-06-28T19:49:18.935Z,21.32
2017-06-28T19:51:48.043Z,21.23
2017-06-28T19:54:17.176Z,21.14
2017-06-28T19:56:46.322Z,21.05
2017-06-28T19:59:15.957Z,20.96
2017-06-28T20:01:45.292Z,20.82
2017-06-28T20:04:15.113Z,20.76
2017-06-28T20:06:44.222Z,20.68
2017-06-28T20:09:13.302Z,20.60
2017-06-28T20:11:42.410Z,20.53
2017-06-28T20:14:11.773Z,20.48
2017-06-28T20:16:41.612Z,20.41
2017-06-28T20:19:10.665Z,20.32
2017-06-28T20:21:40.543Z,20.25
2017-06-28T20:24:09.652Z,20.22
2017-06-28T20:26:38.716Z,20.16
2017-06-28T20:29:08.593Z,20.11
2017-06-28T20:31:37.920Z,20.09
2017-06-28T20:34:07.302Z,20.05
2017-06-28T20:36:36.420Z,19.97
2017-06-28T20:39:05.561Z,19.92
2017-06-28T20:41:35.288Z,19.87
2017-06-28T20:44:04.343Z,19.85
2017-06-28T20:46:33.430Z,19.80
2017-06-28T20:49:02.504Z,19.77
2017-06-28T20:51:31.560Z,19.73
2017-06-28T20:54:00.689Z,19.68
2017-06-28T20:56:29.774Z,19.69
2017-06-28T20:58:59.661Z,19.65
2017-06-28T21:01:28.721Z,19.61
2017-06-28T21:03:57.947Z,19.59
2017-06-28T21:06:26.991Z,19.56
2017-06-28T21:08:56.821Z,19.53
2017-06-28T21:11:25.920Z,19.47
2017-06-28T21:13:54.994Z,19.44
2017-06-28T21:16:24.119Z,19.39
2017-06-28T21:18:53.156Z,19.38
2017-06-28T21:21:22.233Z,19.33
2017-06-28T21:23:51.572Z,19.28
2017-06-28T21:26:21.436Z,19.26
2017-06-28T21:28:50.519Z,19.19
2017-06-28T21:31:19.581Z,19.18
2017-06-28T21:33:48.693Z,19.15
2017-06-28T21:36:17.757Z,19.13
2017-06-28T21:38:47.997Z,19.14
2017-06-28T21:41:17.830Z,19.10
2017-06-28T21:43:46.894Z,19.07
2017-06-28T21:46:15.967Z,19.02
2017-06-28T21:48:45.031Z,18.99
2017-06-28T21:51:14.951Z,18.98
2017-06-28T21:53:44.022Z,18.97
2017-06-28T21:56:13.137Z,18.96
2017-06-28T21:58:42.273Z,18.97
2017-06-28T22:01:11.355Z,18.94
2017-06-28T22:03:40.440Z,18.96
2017-06-28T22:06:09.512Z,18.91
2017-06-28T22:08:38.592Z,18.92
2017-06-28T22:11:07.712Z,18.89
2017-06-28T22:13:36.892Z,18.85
2017-06-28T22:16:05.961Z,18.83
2017-06-28T22:19:05.693Z,18.82
2017-06-28T22:21:34.780Z,18.78
2017-06-28T22:24:03.912Z,18.76
2017-06-28T22:26:32.964Z,18.78
2017-06-28T22:29:02.057Z,18.78
2017-06-28T22:31:31.119Z,18.78
2017-06-28T22:34:00.177Z,18.75
2017-06-28T22:36:29.229Z,18.71
2017-06-28T22:38:59.071Z,18.71
2017-06-28T22:41:28.176Z,18.70
2017-06-28T22:43:57.219Z,18.68
2017-06-28T22:46:26.600Z,18.67
2017-06-28T22:48:55.668Z,18.67
2017-06-28T22:51:24.728Z,18.64
2017-06-28T22:53:53.809Z,18.66
2017-06-28T22:56:23.649Z,18.65
2017-06-28T22:58:52.691Z,18.62
2017-06-28T23:01:21.748Z,18.62
2017-06-28T23:03:51.056Z,18.57
2017-06-28T23:06:20.120Z,18.60
2017-06-28T23:08:49.156Z,18.59
2017-06-28T23:11:18.252Z,18.58
2017-06-28T23:13:47.354Z,18.59
2017-06-28T23:16:17.229Z,18.57
2017-06-28T23:18:46.965Z,18.55
2017-06-28T23:21:16.832Z,18.55
2017-06-28T23:23:45.866Z,18.55
2017-06-28T23:26:14.955Z,18.52
2017-06-28T23:28:44.042Z,18.54
2017-06-28T23:31:13.524Z,18.52
2017-06-28T23:33:42.930Z,18.54
2017-06-28T23:36:11.999Z,18.54
2017-06-28T23:38:41.058Z,18.53
2017-06-28T23:41:10.965Z,18.52
2017-06-28T23:43:40.673Z,18.48
2017-06-28T23:46:10.617Z,18.49
2017-06-28T23:48:39.683Z,18.48
2017-06-28T23:51:08.767Z,18.48
2017-06-28T23:53:37.834Z,18.46
2017-06-28T23:56:06.926Z,18.45
2017-06-28T23:58:36.015Z,18.47
